Garfield, AR (72732)

6:20 AM CDT on July 28, 2016 (GMT -0500)
| | Change Station

Elev -9999 ft 0.00 °N, 0.00 °E | Updated

Partly Cloudy
Partly Cloudy
77 °F
Feels Like 77 °F
N
4
Wind Variable Wind from WNW
Gusts mph

Today
High -- | Low -- °F
--% Chance of Precip.
Yesterday
High -- | Low -- °F
Precip. -- in
Pressure 30.00 in
Visibility 2.0 miles
Clouds Clear
Dew Point 72 °F
Humidity 85%
Rainfall --
Snow Depth Not available.
6:19 AM 8:24 PM
Waning Crescent, 33% visible
SPECI KROG 281117Z 23003KT 2SM BR CLR 22/21 A3000 RMK AO2 $
Pressure 30.00 in
Visibility 2.0 miles
Clouds Clear
Dew Point 72 °F
Humidity 85%
Rainfall --
Snow Depth Not available.
6:19 AM 8:24 PM
Waning Crescent, 33% visible
SPECI KROG 281117Z 23003KT 2SM BR CLR 22/21 A3000 RMK AO2 $

10-Day Weather Forecast

Almanac

Astronomy

Jul. 28, 2016 Rise Set
Actual Time
Civil Twilight
Nautical Twilight
Astronomical Twilight
Moon
Length of Visible Light
Length of Day
Tomorrow will be .
, % of the Moon is Illuminated

Today's Extremes

State Highs State Lows

Community

WunderPhotos

Upload Photos

1,928,082 photos uploaded!

WunderBlog® & News

Nearby

Air Quality

  Air Quality AQ Index Pollutant
Not available.

Snow Depth

Station Depth Elevation

Earthquake Activity

City Distance Mag. Time & Date
Minimum magnitude displayed is 2.5.

Coastal Water Temperatures

Place Temperature

Stations

Nearby Weather Stations

Station Location Temp. Windchill Dew Point Humidity Wind Precip. Elev Updated Type
                   

Watches & Warnings

There are currently no watches in effect.